Time;durP1;ratioP1;P1;durP2;ratioP2;P2;SDS_P1;SDS_P2;PMS_P1;PMS_P2;Temp;Humidity;BMP_temperature;BMP_pressure;BME280_temperature;BME280_humidity;BME280_pressure;Samples;Min_cycle;Max_cycle;Signal;HPM_P1;HPM_P2
2023/10/30 00:00:28;;;;;;;19.27;17.67;;;;;;;;;;5075892;28;20424;-79
2023/10/30 00:02:55;;;;;;;18.70;17.40;;;;;;;;;;5075281;28;20446;-79
2023/10/30 00:05:22;;;;;;;17.90;16.80;;;;;;;;;;5075517;28;20476;-79
2023/10/30 00:07:49;;;;;;;17.90;16.80;;;;;;;;;;5073610;28;20500;-79
2023/10/30 00:10:16;;;;;;;19.00;17.70;;;;;;;;;;5057624;28;20462;-79
2023/10/30 00:12:45;;;;;;;18.00;16.80;;;;;;;;;;5059472;28;20445;-80
2023/10/30 00:15:12;;;;;;;19.20;17.90;;;;;;;;;;5071787;28;20953;-78
2023/10/30 00:17:39;;;;;;;19.20;17.90;;;;;;;;;;5076666;28;20895;-80
2023/10/30 00:20:07;;;;;;;19.70;18.00;;;;;;;;;;5075910;28;20446;-80
2023/10/30 00:22:34;;;;;;;18.50;17.30;;;;;;;;;;5075938;28;20445;-79
2023/10/30 00:25:02;;;;;;;18.97;17.53;;;;;;;;;;5074596;28;20452;-79
2023/10/30 00:27:29;;;;;;;18.80;17.50;;;;;;;;;;5074865;28;20493;-79
2023/10/30 00:29:58;;;;;;;19.20;17.87;;;;;;;;;;5075209;28;20452;-79
2023/10/30 00:32:25;;;;;;;18.30;17.20;;;;;;;;;;5074746;28;20934;-79
2023/10/30 00:34:52;;;;;;;18.10;17.10;;;;;;;;;;5074731;28;20445;-79
2023/10/30 00:37:19;;;;;;;18.30;17.20;;;;;;;;;;5074564;28;20981;-79
2023/10/30 00:39:46;;;;;;;18.83;17.60;;;;;;;;;;5075007;28;20811;-79
2023/10/30 00:42:13;;;;;;;18.30;17.10;;;;;;;;;;5074949;28;20449;-79
2023/10/30 00:44:40;;;;;;;18.77;17.67;;;;;;;;;;5074340;28;20453;-79
2023/10/30 00:47:08;;;;;;;18.13;17.13;;;;;;;;;;5074838;28;20534;-79
2023/10/30 00:49:35;;;;;;;18.33;17.03;;;;;;;;;;5074824;28;20454;-80
2023/10/30 00:52:02;;;;;;;19.00;17.50;;;;;;;;;;5074469;28;20449;-80
2023/10/30 00:54:29;;;;;;;18.50;17.20;;;;;;;;;;5073671;28;20445;-78
2023/10/30 00:56:57;;;;;;;19.00;17.70;;;;;;;;;;5075090;28;20510;-80
2023/10/30 00:59:24;;;;;;;18.07;16.70;;;;;;;;;;5074556;28;21207;-80
2023/10/30 01:01:51;;;;;;;17.97;16.87;;;;;;;;;;5074017;28;20457;-79
2023/10/30 01:04:19;;;;;;;17.97;16.97;;;;;;;;;;5073862;28;20819;-80
2023/10/30 01:06:46;;;;;;;18.03;16.80;;;;;;;;;;5074321;28;20477;-80
2023/10/30 01:09:14;;;;;;;18.00;16.80;;;;;;;;;;5073556;28;20489;-79
2023/10/30 01:11:41;;;;;;;19.17;17.87;;;;;;;;;;5073619;28;20469;-78
2023/10/30 01:14:08;;;;;;;19.20;17.80;;;;;;;;;;5073146;28;20986;-79
2023/10/30 01:16:35;;;;;;;18.20;17.20;;;;;;;;;;5074127;28;20461;-78
2023/10/30 01:19:02;;;;;;;19.27;17.80;;;;;;;;;;5073861;28;20829;-79
2023/10/30 01:21:30;;;;;;;18.80;17.70;;;;;;;;;;5073690;28;20457;-80
2023/10/30 01:23:57;;;;;;;19.87;18.27;;;;;;;;;;5074404;28;20457;-80
2023/10/30 01:26:24;;;;;;;19.40;17.90;;;;;;;;;;5073377;28;20511;-80
2023/10/30 01:28:51;;;;;;;18.57;17.37;;;;;;;;;;5073892;28;20489;-80
2023/10/30 01:31:18;;;;;;;19.13;17.60;;;;;;;;;;5073627;28;20934;-78
2023/10/30 01:33:45;;;;;;;19.30;17.90;;;;;;;;;;5073895;28;20449;-81
2023/10/30 01:36:12;;;;;;;19.10;17.70;;;;;;;;;;5073185;28;20470;-80
2023/10/30 01:38:41;;;;;;;18.87;17.67;;;;;;;;;;5073276;28;20440;-80
2023/10/30 01:41:08;;;;;;;18.87;17.47;;;;;;;;;;5073199;28;20457;-80
2023/10/30 01:43:35;;;;;;;19.37;18.10;;;;;;;;;;5073592;28;20446;-80
2023/10/30 01:46:02;;;;;;;19.03;17.67;;;;;;;;;;5073156;28;20456;-80
2023/10/30 01:48:31;;;;;;;19.83;18.33;;;;;;;;;;5073408;28;20485;-80
2023/10/30 01:50:59;;;;;;;19.50;18.00;;;;;;;;;;5073306;28;20452;-80
2023/10/30 01:53:26;;;;;;;18.17;17.17;;;;;;;;;;5062724;28;20454;-79
2023/10/30 01:55:55;;;;;;;18.37;16.97;;;;;;;;;;5052570;28;20450;-80
2023/10/30 01:58:23;;;;;;;19.40;18.10;;;;;;;;;;5053071;28;21038;-80
2023/10/30 02:00:50;;;;;;;19.90;18.40;;;;;;;;;;5053131;28;20476;-79
2023/10/30 02:03:18;;;;;;;19.43;17.70;;;;;;;;;;5053285;28;20462;-80
2023/10/30 02:05:45;;;;;;;18.20;17.10;;;;;;;;;;5052875;28;20450;-79
2023/10/30 02:08:12;;;;;;;18.30;17.10;;;;;;;;;;5053538;28;20486;-78
2023/10/30 02:10:39;;;;;;;19.27;17.93;;;;;;;;;;5052893;28;20969;-80
2023/10/30 02:13:08;;;;;;;20.47;19.07;;;;;;;;;;5053396;28;20435;-79
2023/10/30 02:15:35;;;;;;;19.47;18.17;;;;;;;;;;5052293;28;20462;-80
2023/10/30 02:18:02;;;;;;;34.33;18.13;;;;;;;;;;5052876;28;20466;-80
2023/10/30 02:20:29;;;;;;;19.07;17.37;;;;;;;;;;5053151;28;20430;-79
2023/10/30 02:22:56;;;;;;;18.73;17.23;;;;;;;;;;5052460;28;20446;-79
2023/10/30 02:25:26;;;;;;;18.37;17.00;;;;;;;;;;5052750;28;20446;-80
2023/10/30 02:27:53;;;;;;;18.20;17.10;;;;;;;;;;5053047;28;20479;-79
2023/10/30 02:30:20;;;;;;;19.10;17.50;;;;;;;;;;5053390;28;20455;-79
2023/10/30 02:32:48;;;;;;;18.50;16.93;;;;;;;;;;5052570;28;20534;-79
2023/10/30 02:35:16;;;;;;;19.57;17.50;;;;;;;;;;5052636;28;20453;-80
2023/10/30 02:37:43;;;;;;;20.00;18.40;;;;;;;;;;5052907;28;20478;-80
2023/10/30 02:40:11;;;;;;;19.37;17.67;;;;;;;;;;5052766;28;20454;-79
2023/10/30 02:42:40;;;;;;;19.37;17.67;;;;;;;;;;5053126;28;20867;-79
2023/10/30 02:45:07;;;;;;;19.47;17.80;;;;;;;;;;5052309;28;20454;-79
2023/10/30 02:47:35;;;;;;;18.77;17.27;;;;;;;;;;5052419;28;20466;-80
2023/10/30 02:50:02;;;;;;;18.57;17.37;;;;;;;;;;5052996;28;20477;-79
2023/10/30 02:52:30;;;;;;;18.23;17.13;;;;;;;;;;5052766;28;20484;-79
2023/10/30 02:54:57;;;;;;;18.20;17.10;;;;;;;;;;5052408;28;20798;-79
2023/10/30 02:57:24;;;;;;;18.60;17.37;;;;;;;;;;5052698;28;20441;-80
2023/10/30 02:59:52;;;;;;;19.00;17.60;;;;;;;;;;5052554;28;20443;-80
2023/10/30 03:02:19;;;;;;;19.40;17.60;;;;;;;;;;5052386;28;20417;-78
2023/10/30 03:04:46;;;;;;;19.73;18.23;;;;;;;;;;5052030;28;20455;-81
2023/10/30 03:07:15;;;;;;;19.00;17.53;;;;;;;;;;5053133;28;20878;-79
2023/10/30 03:09:42;;;;;;;20.80;18.70;;;;;;;;;;5052459;28;20512;-80
2023/10/30 03:12:09;;;;;;;18.33;17.13;;;;;;;;;;5051967;28;20458;-79
2023/10/30 03:14:36;;;;;;;19.03;17.57;;;;;;;;;;5051860;28;20947;-79
2023/10/30 03:17:05;;;;;;;17.50;16.50;;;;;;;;;;5052474;28;20473;-79
2023/10/30 03:19:32;;;;;;;18.57;17.37;;;;;;;;;;5052089;28;20454;-80
2023/10/30 03:21:59;;;;;;;19.57;17.67;;;;;;;;;;5052201;28;20452;-79
2023/10/30 03:24:26;;;;;;;19.47;18.10;;;;;;;;;;5051981;28;20458;-80
2023/10/30 03:26:54;;;;;;;18.37;17.20;;;;;;;;;;5052161;28;20552;-80
2023/10/30 03:29:21;;;;;;;19.13;17.33;;;;;;;;;;5072470;28;20536;-80
2023/10/30 03:31:52;;;;;;;18.40;17.20;;;;;;;;;;5072219;28;20446;-78
2023/10/30 03:34:21;;;;;;;18.37;17.33;;;;;;;;;;5073037;28;20458;-78
2023/10/30 03:36:48;;;;;;;18.27;17.00;;;;;;;;;;5075615;28;20477;-80
2023/10/30 03:39:15;;;;;;;18.00;16.70;;;;;;;;;;5075872;28;20445;-79
2023/10/30 03:41:44;;;;;;;17.63;16.33;;;;;;;;;;5075949;28;20802;-79
2023/10/30 03:44:11;;;;;;;18.07;16.77;;;;;;;;;;5075098;28;20449;-80
2023/10/30 03:46:38;;;;;;;19.40;17.53;;;;;;;;;;5075346;28;20453;-78
2023/10/30 03:49:05;;;;;;;18.37;17.17;;;;;;;;;;5075248;28;20481;-80
2023/10/30 03:51:33;;;;;;;18.97;17.43;;;;;;;;;;5075318;28;20461;-80
2023/10/30 03:54:00;;;;;;;18.90;17.50;;;;;;;;;;5074864;28;20445;-79
2023/10/30 03:56:27;;;;;;;19.13;17.80;;;;;;;;;;5075554;28;20465;-79
2023/10/30 03:58:54;;;;;;;18.17;17.03;;;;;;;;;;5075120;28;20454;-79
2023/10/30 04:01:22;;;;;;;21.13;19.00;;;;;;;;;;5075261;28;20457;-79
2023/10/30 04:03:49;;;;;;;18.47;17.17;;;;;;;;;;5074781;28;20442;-80
2023/10/30 04:06:16;;;;;;;19.30;17.33;;;;;;;;;;5075119;28;20960;-80
2023/10/30 04:08:44;;;;;;;17.83;16.80;;;;;;;;;;5074310;28;20551;-79
2023/10/30 04:11:13;;;;;;;19.30;17.60;;;;;;;;;;5074547;28;20492;-80
2023/10/30 04:13:40;;;;;;;18.50;17.50;;;;;;;;;;5075116;28;20438;-80
2023/10/30 04:16:07;;;;;;;18.63;17.33;;;;;;;;;;5074312;28;20424;-80
2023/10/30 04:18:34;;;;;;;20.03;18.07;;;;;;;;;;5074671;28;20527;-79
2023/10/30 04:21:01;;;;;;;18.50;17.20;;;;;;;;;;5075024;28;20454;-80
2023/10/30 04:23:28;;;;;;;18.73;17.40;;;;;;;;;;5074441;28;20448;-79
2023/10/30 04:25:57;;;;;;;18.57;17.30;;;;;;;;;;5073942;28;20452;-80
2023/10/30 04:28:24;;;;;;;18.87;17.20;;;;;;;;;;5075046;28;20473;-80
2023/10/30 04:30:51;;;;;;;19.60;17.90;;;;;;;;;;5075130;28;20534;-79
2023/10/30 04:33:19;;;;;;;19.23;17.93;;;;;;;;;;5075072;28;20476;-79
2023/10/30 04:35:46;;;;;;;19.23;17.60;;;;;;;;;;5073724;28;20591;-80
2023/10/30 04:38:13;;;;;;;21.03;19.47;;;;;;;;;;5074930;28;20524;-79
2023/10/30 04:40:40;;;;;;;19.30;17.73;;;;;;;;;;5074439;28;20526;-79
2023/10/30 04:43:09;;;;;;;19.60;17.87;;;;;;;;;;5074538;28;20954;-80
2023/10/30 04:45:36;;;;;;;19.63;18.13;;;;;;;;;;5073989;28;20449;-79
2023/10/30 04:48:03;;;;;;;21.87;18.93;;;;;;;;;;5074139;28;20544;-80
2023/10/30 04:50:30;;;;;;;19.33;17.73;;;;;;;;;;5074344;28;20480;-78
2023/10/30 04:52:57;;;;;;;19.23;17.47;;;;;;;;;;5074692;28;20442;-79
2023/10/30 04:55:24;;;;;;;19.50;18.10;;;;;;;;;;5073633;28;20945;-79
2023/10/30 04:57:51;;;;;;;18.83;17.40;;;;;;;;;;5073887;28;20480;-80
2023/10/30 05:00:20;;;;;;;18.03;17.00;;;;;;;;;;5074045;28;20454;-79
2023/10/30 05:02:47;;;;;;;18.93;17.27;;;;;;;;;;5073867;28;20424;-79
2023/10/30 05:05:14;;;;;;;19.33;17.50;;;;;;;;;;5073475;28;20446;-79
2023/10/30 05:07:44;;;;;;;18.13;17.00;;;;;;;;;;5074421;28;20440;-80
2023/10/30 05:10:11;;;;;;;18.50;17.13;;;;;;;;;;5073559;28;20489;-79
2023/10/30 05:12:38;;;;;;;17.73;16.40;;;;;;;;;;5073555;28;20457;-79
2023/10/30 05:15:08;;;;;;;20.33;19.03;;;;;;;;;;5073085;28;20864;-79
2023/10/30 05:17:37;;;;;;;18.30;17.20;;;;;;;;;;5074051;28;20480;-80
2023/10/30 05:20:04;;;;;;;18.30;16.77;;;;;;;;;;5073938;28;20420;-79
2023/10/30 05:22:32;;;;;;;18.50;17.10;;;;;;;;;;5073802;28;20435;-79
2023/10/30 05:24:59;;;;;;;19.63;18.00;;;;;;;;;;5073568;28;20446;-79
2023/10/30 05:27:27;;;;;;;18.90;17.50;;;;;;;;;;5073663;28;21002;-79
2023/10/30 05:29:54;;;;;;;18.97;17.57;;;;;;;;;;5073513;28;20489;-80
2023/10/30 05:32:22;;;;;;;18.97;17.50;;;;;;;;;;5073607;28;20477;-79
2023/10/30 05:34:50;;;;;;;18.97;17.43;;;;;;;;;;5072538;28;20457;-78
2023/10/30 05:37:17;;;;;;;19.53;18.23;;;;;;;;;;5073834;28;20523;-79
2023/10/30 05:39:44;;;;;;;19.20;17.80;;;;;;;;;;5073647;28;20450;-79
2023/10/30 05:42:11;;;;;;;19.10;17.80;;;;;;;;;;5072474;28;20469;-80
2023/10/30 05:44:38;;;;;;;18.63;17.23;;;;;;;;;;5073043;28;20905;-79
2023/10/30 05:47:06;;;;;;;18.43;16.90;;;;;;;;;;5073220;28;20473;-78
2023/10/30 05:49:33;;;;;;;18.10;17.10;;;;;;;;;;5073267;28;20485;-79
2023/10/30 05:52:02;;;;;;;18.40;17.20;;;;;;;;;;5059455;28;20432;-79
2023/10/30 05:54:29;;;;;;;18.73;17.40;;;;;;;;;;5052649;28;20851;-79
2023/10/30 05:56:56;;;;;;;25.37;17.60;;;;;;;;;;5052343;28;20470;-79
2023/10/30 05:59:23;;;;;;;18.37;16.90;;;;;;;;;;5053056;28;20454;-79
2023/10/30 06:01:50;;;;;;;18.50;17.20;;;;;;;;;;5052461;28;20453;-80
2023/10/30 06:04:17;;;;;;;19.20;17.60;;;;;;;;;;5051786;28;20868;-80
2023/10/30 06:06:44;;;;;;;18.77;17.47;;;;;;;;;;5052834;28;20461;-79
2023/10/30 06:09:13;;;;;;;18.77;17.57;;;;;;;;;;5053137;28;20457;-79
2023/10/30 06:11:40;;;;;;;19.47;18.07;;;;;;;;;;5052619;28;20435;-80
2023/10/30 06:14:07;;;;;;;17.90;16.70;;;;;;;;;;5052678;28;20475;-80
2023/10/30 06:16:34;;;;;;;17.80;16.70;;;;;;;;;;5053510;28;20462;-80
2023/10/30 06:19:02;;;;;;;19.47;18.07;;;;;;;;;;5053191;28;20477;-80
2023/10/30 06:21:29;;;;;;;18.47;17.10;;;;;;;;;;5052872;28;20432;-78
2023/10/30 06:23:56;;;;;;;18.17;16.90;;;;;;;;;;5052683;28;20454;-80
2023/10/30 06:26:24;;;;;;;18.93;17.40;;;;;;;;;;5053023;28;20425;-79
2023/10/30 06:28:52;;;;;;;18.50;17.30;;;;;;;;;;5052936;28;20433;-79
2023/10/30 06:31:19;;;;;;;19.63;17.90;;;;;;;;;;5052715;28;20864;-80
2023/10/30 06:33:47;;;;;;;18.57;17.20;;;;;;;;;;5051995;28;20443;-79
2023/10/30 06:36:14;;;;;;;18.53;17.23;;;;;;;;;;5053125;28;20458;-80
2023/10/30 06:38:41;;;;;;;19.20;17.37;;;;;;;;;;5052870;28;20470;-79
2023/10/30 06:41:08;;;;;;;19.17;17.57;;;;;;;;;;5053287;28;20449;-79
2023/10/30 06:43:38;;;;;;;19.30;17.90;;;;;;;;;;5052487;28;20442;-79
2023/10/30 06:46:06;;;;;;;19.63;17.77;;;;;;;;;;5052537;28;20465;-80
2023/10/30 06:48:33;;;;;;;18.80;17.40;;;;;;;;;;5052283;28;20462;-79
2023/10/30 06:51:00;;;;;;;18.10;16.73;;;;;;;;;;5052284;28;20495;-79
2023/10/30 06:53:27;;;;;;;19.27;17.43;;;;;;;;;;5053546;28;20435;-79
2023/10/30 06:55:54;;;;;;;18.73;17.30;;;;;;;;;;5051903;28;21221;-80
2023/10/30 06:58:22;;;;;;;19.53;17.93;;;;;;;;;;5052522;28;20539;-79
2023/10/30 07:00:51;;;;;;;18.60;17.10;;;;;;;;;;5055502;28;20437;-79
2023/10/30 07:03:18;;;;;;;18.80;17.40;;;;;;;;;;5069795;28;20432;-78
2023/10/30 07:05:45;;;;;;;26.20;17.87;;;;;;;;;;5069113;28;20922;-79
2023/10/30 07:08:12;;;;;;;18.83;17.63;;;;;;;;;;5071185;28;20473;-79
2023/10/30 07:10:40;;;;;;;19.97;18.37;;;;;;;;;;5073551;28;20464;-78
2023/10/30 07:13:07;;;;;;;19.43;17.90;;;;;;;;;;5073402;28;20465;-79
2023/10/30 07:15:34;;;;;;;18.77;17.20;;;;;;;;;;5073399;28;20461;-78
2023/10/30 07:18:03;;;;;;;19.40;18.00;;;;;;;;;;5073512;28;20470;-78
2023/10/30 07:20:30;;;;;;;19.93;18.53;;;;;;;;;;5073676;28;20453;-78
2023/10/30 07:22:57;;;;;;;18.43;17.13;;;;;;;;;;5075953;28;20453;-80
2023/10/30 07:25:24;;;;;;;19.50;17.90;;;;;;;;;;5074878;28;20431;-79
2023/10/30 07:27:51;;;;;;;20.00;18.40;;;;;;;;;;5075951;28;20473;-79
2023/10/30 07:30:18;;;;;;;19.43;17.70;;;;;;;;;;5075952;28;20489;-79
2023/10/30 07:32:45;;;;;;;22.33;20.40;;;;;;;;;;5076123;28;20540;-80
2023/10/30 07:35:14;;;;;;;18.97;17.67;;;;;;;;;;5075247;28;20548;-80
2023/10/30 07:37:41;;;;;;;19.07;17.67;;;;;;;;;;5075496;28;20473;-81
2023/10/30 07:40:08;;;;;;;20.27;18.07;;;;;;;;;;5076371;28;20491;-81
2023/10/30 07:42:36;;;;;;;19.90;18.37;;;;;;;;;;5076465;28;20453;-80
2023/10/30 07:45:03;;;;;;;21.10;19.13;;;;;;;;;;5075506;28;20457;-79
2023/10/30 07:47:30;;;;;;;19.60;18.30;;;;;;;;;;5075556;28;20470;-80
2023/10/30 07:50:00;;;;;;;19.73;18.13;;;;;;;;;;5075497;28;20542;-81
2023/10/30 07:52:28;;;;;;;20.00;18.37;;;;;;;;;;5061411;28;20516;-81
2023/10/30 07:54:55;;;;;;;20.03;18.63;;;;;;;;;;5055540;28;20531;-80
2023/10/30 07:57:22;;;;;;;20.10;18.47;;;;;;;;;;5055729;28;20437;-80
2023/10/30 07:59:49;;;;;;;20.43;18.73;;;;;;;;;;5055515;28;20432;-80
2023/10/30 08:02:16;;;;;;;19.80;18.30;;;;;;;;;;5059781;28;20948;-81
2023/10/30 08:04:43;;;;;;;19.90;18.50;;;;;;;;;;5074915;28;20449;-79
2023/10/30 08:07:10;;;;;;;20.13;18.67;;;;;;;;;;5075317;28;20500;-79
2023/10/30 08:09:39;;;;;;;21.47;19.37;;;;;;;;;;5075142;28;20455;-80
2023/10/30 08:12:06;;;;;;;20.57;18.83;;;;;;;;;;5074919;28;20435;-79
2023/10/30 08:14:33;;;;;;;19.33;17.50;;;;;;;;;;5073063;28;20472;-78
2023/10/30 08:17:02;;;;;;;19.10;17.50;;;;;;;;;;5072345;28;21160;-77
2023/10/30 08:19:30;;;;;;;18.83;17.60;;;;;;;;;;5071877;28;20424;-78
2023/10/30 08:21:57;;;;;;;19.20;18.00;;;;;;;;;;5072592;28;20458;-77
2023/10/30 08:24:24;;;;;;;18.20;16.87;;;;;;;;;;5072102;28;20425;-78
2023/10/30 08:26:52;;;;;;;19.00;17.63;;;;;;;;;;5072292;28;20477;-78
2023/10/30 08:29:20;;;;;;;19.40;18.00;;;;;;;;;;5072592;28;20811;-79
2023/10/30 08:31:47;;;;;;;18.47;17.13;;;;;;;;;;5071919;28;20576;-77
2023/10/30 08:34:14;;;;;;;20.70;18.77;;;;;;;;;;5071702;28;20449;-78
2023/10/30 08:36:41;;;;;;;19.20;17.03;;;;;;;;;;5072082;28;20452;-79
2023/10/30 08:39:08;;;;;;;19.17;17.60;;;;;;;;;;5067064;28;21324;-78
2023/10/30 08:41:36;;;;;;;19.70;18.43;;;;;;;;;;5051714;28;20434;-78
2023/10/30 08:44:05;;;;;;;20.13;18.20;;;;;;;;;;5051563;28;20459;-78
2023/10/30 08:46:33;;;;;;;19.30;18.03;;;;;;;;;;5051469;28;21320;-78
2023/10/30 08:49:00;;;;;;;19.40;17.50;;;;;;;;;;5052442;28;20455;-78
2023/10/30 08:51:27;;;;;;;18.73;17.47;;;;;;;;;;5052056;28;20560;-78
2023/10/30 08:53:54;;;;;;;19.20;17.87;;;;;;;;;;5052051;28;20827;-79
2023/10/30 08:56:21;;;;;;;22.63;18.10;;;;;;;;;;5052244;28;20446;-77
2023/10/30 08:58:48;;;;;;;19.80;18.10;;;;;;;;;;5052114;28;20459;-76
2023/10/30 09:01:17;;;;;;;20.30;18.53;;;;;;;;;;5052600;28;20450;-79
2023/10/30 09:03:44;;;;;;;18.50;17.10;;;;;;;;;;5051803;28;20446;-78
2023/10/30 09:06:11;;;;;;;19.80;18.30;;;;;;;;;;5051505;28;21251;-79
2023/10/30 09:08:38;;;;;;;18.50;17.20;;;;;;;;;;5071815;28;20444;-78
2023/10/30 09:11:05;;;;;;;19.03;17.80;;;;;;;;;;5072329;28;20497;-79
2023/10/30 09:13:32;;;;;;;19.50;17.80;;;;;;;;;;5072530;28;20445;-79
2023/10/30 09:15:59;;;;;;;18.93;17.60;;;;;;;;;;5072920;28;20814;-78
2023/10/30 09:18:27;;;;;;;18.40;17.30;;;;;;;;;;5072229;28;20455;-79
2023/10/30 09:20:54;;;;;;;20.07;18.27;;;;;;;;;;5072422;28;20437;-78
2023/10/30 09:23:21;;;;;;;18.93;17.83;;;;;;;;;;5072571;28;20446;-78
2023/10/30 09:25:49;;;;;;;18.73;17.50;;;;;;;;;;5063399;28;20523;-79
2023/10/30 09:28:16;;;;;;;18.93;17.60;;;;;;;;;;5053608;28;21293;-79
2023/10/30 09:30:44;;;;;;;19.20;17.77;;;;;;;;;;5053435;28;20577;-80
2023/10/30 09:33:11;;;;;;;18.37;16.83;;;;;;;;;;5050631;28;21331;-78
2023/10/30 09:35:42;;;;;;;19.23;17.07;;;;;;;;;;5058773;28;20453;-80
2023/10/30 09:38:09;;;;;;;19.20;17.90;;;;;;;;;;5050824;28;20558;-83
2023/10/30 09:40:36;;;;;;;19.37;18.17;;;;;;;;;;5056729;28;20463;-82
2023/10/30 09:43:09;;;;;;;19.90;18.33;;;;;;;;;;5066046;28;20460;-85
2023/10/30 09:45:37;;;;;;;18.90;17.63;;;;;;;;;;5076799;28;21058;-82
2023/10/30 09:48:05;;;;;;;18.53;17.07;;;;;;;;;;5063364;28;20488;-82
2023/10/30 09:50:33;;;;;;;19.83;18.30;;;;;;;;;;5053609;28;20492;-78
2023/10/30 09:53:03;;;;;;;18.93;17.50;;;;;;;;;;5052377;28;20506;-77
2023/10/30 09:55:30;;;;;;;19.17;17.70;;;;;;;;;;5047274;28;20473;-79
2023/10/30 09:57:57;;;;;;;18.63;17.33;;;;;;;;;;5052638;28;20494;-79
2023/10/30 10:00:24;;;;;;;19.93;18.37;;;;;;;;;;5052512;28;20965;-80
2023/10/30 10:02:51;;;;;;;20.10;18.77;;;;;;;;;;5052140;28;20455;-80
2023/10/30 10:05:18;;;;;;;19.73;18.33;;;;;;;;;;5053183;28;20512;-80
2023/10/30 10:07:45;;;;;;;18.53;17.27;;;;;;;;;;5053171;28;21260;-80
2023/10/30 10:10:18;;;;;;;19.20;17.90;;;;;;;;;;5053939;28;20450;-78
2023/10/30 10:12:45;;;;;;;18.63;17.33;;;;;;;;;;5052927;28;20883;-79
2023/10/30 10:15:12;;;;;;;18.50;17.27;;;;;;;;;;5051679;28;20450;-80
2023/10/30 10:17:44;;;;;;;18.13;16.93;;;;;;;;;;5050766;28;20520;-79
2023/10/30 10:20:11;;;;;;;18.93;17.57;;;;;;;;;;5052527;28;20450;-79
2023/10/30 10:22:39;;;;;;;17.40;16.40;;;;;;;;;;5052625;28;20450;-79
2023/10/30 10:25:10;;;;;;;18.53;17.13;;;;;;;;;;5051635;28;20504;-79
2023/10/30 10:27:40;;;;;;;18.73;17.40;;;;;;;;;;5063833;28;20455;-79
2023/10/30 10:30:09;;;;;;;18.83;17.47;;;;;;;;;;5071347;28;20544;-80
2023/10/30 10:32:37;;;;;;;19.13;17.83;;;;;;;;;;5071720;28;20446;-79
2023/10/30 10:35:05;;;;;;;18.47;17.30;;;;;;;;;;5062617;28;20458;-80
2023/10/30 10:37:33;;;;;;;18.53;17.30;;;;;;;;;;5053741;28;20473;-79
2023/10/30 10:40:01;;;;;;;18.27;17.07;;;;;;;;;;5055435;28;20917;-79
2023/10/30 10:42:28;;;;;;;19.00;17.77;;;;;;;;;;5052483;28;20512;-80
2023/10/30 10:44:57;;;;;;;19.73;18.23;;;;;;;;;;5054594;28;20475;-79
2023/10/30 10:47:25;;;;;;;19.73;18.53;;;;;;;;;;5055286;28;20462;-80
2023/10/30 10:49:52;;;;;;;19.73;18.00;;;;;;;;;;5056332;28;20450;-79
2023/10/30 10:52:20;;;;;;;18.67;17.37;;;;;;;;;;5066417;28;20835;-80
2023/10/30 10:54:48;;;;;;;18.50;17.23;;;;;;;;;;5075584;28;20937;-79
2023/10/30 10:57:20;;;;;;;19.07;17.60;;;;;;;;;;5076103;28;20512;-79
2023/10/30 10:59:48;;;;;;;18.50;17.30;;;;;;;;;;5074646;28;20456;-79
2023/10/30 11:02:21;;;;;;;19.60;18.20;;;;;;;;;;5063936;28;20448;-79
2023/10/30 11:04:49;;;;;;;19.23;17.93;;;;;;;;;;5055311;28;20795;-79
2023/10/30 11:07:18;;;;;;;17.77;16.80;;;;;;;;;;5055130;28;20474;-78
2023/10/30 11:09:48;;;;;;;19.80;18.20;;;;;;;;;;5055586;28;20454;-79
2023/10/30 11:12:22;;;;;;;18.37;17.17;;;;;;;;;;5056363;28;20493;-80
2023/10/30 11:14:51;;;;;;;18.10;17.20;;;;;;;;;;5061586;28;20441;-80
2023/10/30 11:17:20;;;;;;;18.53;17.53;;;;;;;;;;5078483;28;20465;-79
2023/10/30 11:19:47;;;;;;;18.60;17.50;;;;;;;;;;5064270;28;20489;-82
2023/10/30 11:22:36;;;;;;;18.70;17.70;;;;;;;;;;5060564;28;20796;-80
2023/10/30 11:25:04;;;;;;;18.60;17.50;;;;;;;;;;5068055;28;20445;-78
2023/10/30 11:27:36;;;;;;;21.80;20.30;;;;;;;;;;5076020;28;20473;-79
2023/10/30 11:30:04;;;;;;;18.93;17.73;;;;;;;;;;5078289;28;21132;-81
2023/10/30 11:32:38;;;;;;;19.17;17.93;;;;;;;;;;5059951;28;20464;-80
2023/10/30 11:35:05;;;;;;;18.60;17.70;;;;;;;;;;5058627;28;20423;-80
2023/10/30 11:37:33;;;;;;;19.00;17.80;;;;;;;;;;5058614;28;20470;-79
2023/10/30 11:40:03;;;;;;;18.63;17.60;;;;;;;;;;5057902;28;20446;-79
2023/10/30 11:42:39;;;;;;;19.23;18.03;;;;;;;;;;5058255;28;20504;-79
2023/10/30 11:45:16;;;;;;;19.13;17.97;;;;;;;;;;5058387;28;20434;-79
2023/10/30 11:47:46;;;;;;;19.63;18.53;;;;;;;;;;5057958;28;20470;-80
2023/10/30 11:50:13;;;;;;;21.07;19.77;;;;;;;;;;5057894;28;20459;-79
2023/10/30 11:52:40;;;;;;;18.67;17.63;;;;;;;;;;5057737;28;21064;-80
2023/10/30 11:55:08;;;;;;;18.33;17.43;;;;;;;;;;5056162;28;20454;-79
2023/10/30 11:57:36;;;;;;;18.60;17.50;;;;;;;;;;5057312;28;20462;-79
2023/10/30 12:00:03;;;;;;;18.90;17.80;;;;;;;;;;5057640;28;20541;-77
2023/10/30 12:02:30;;;;;;;19.50;18.40;;;;;;;;;;5057719;28;20859;-79
2023/10/30 12:05:06;;;;;;;18.70;17.80;;;;;;;;;;5056621;28;20429;-79
2023/10/30 12:07:33;;;;;;;19.50;18.30;;;;;;;;;;5056947;28;20470;-80
2023/10/30 12:10:02;;;;;;;19.30;18.23;;;;;;;;;;5056588;28;20417;-79
2023/10/30 12:12:29;;;;;;;18.83;17.80;;;;;;;;;;5055744;28;20490;-80
2023/10/30 12:14:58;;;;;;;18.50;17.37;;;;;;;;;;5055405;28;20425;-79
2023/10/30 12:17:26;;;;;;;19.37;18.27;;;;;;;;;;5055097;28;20471;-79
2023/10/30 12:19:53;;;;;;;18.20;17.30;;;;;;;;;;5055628;28;20440;-81
2023/10/30 12:22:21;;;;;;;19.27;18.17;;;;;;;;;;5055830;28;20810;-80
2023/10/30 12:24:50;;;;;;;19.10;18.10;;;;;;;;;;5055631;28;20425;-79
2023/10/30 12:27:20;;;;;;;18.97;17.97;;;;;;;;;;5054740;28;20466;-80
2023/10/30 12:29:47;;;;;;;18.93;18.00;;;;;;;;;;5056054;28;20470;-79
2023/10/30 12:32:14;;;;;;;19.37;18.27;;;;;;;;;;5068957;28;20872;-79
2023/10/30 12:34:41;;;;;;;19.50;18.30;;;;;;;;;;5075144;28;20420;-80
2023/10/30 12:37:18;;;;;;;18.60;17.60;;;;;;;;;;5075634;28;20470;-80
2023/10/30 12:42:39;;;;;;;18.30;17.37;;;;;;;;;;5150443;27;20885;-77
2023/10/30 12:45:11;;;;;;;19.17;18.17;;;;;;;;;;5148602;27;20450;-78
2023/10/30 12:47:38;;;;;;;18.67;17.37;;;;;;;;;;5149241;27;20437;-79
2023/10/30 12:50:06;;;;;;;18.60;17.70;;;;;;;;;;5149233;27;20438;-78
2023/10/30 12:52:33;;;;;;;18.47;17.47;;;;;;;;;;5149238;27;20489;-78
2023/10/30 12:55:00;;;;;;;19.03;18.07;;;;;;;;;;5148558;27;20443;-77
2023/10/30 12:57:27;;;;;;;18.97;18.07;;;;;;;;;;5149102;27;20473;-78
2023/10/30 12:59:56;;;;;;;18.70;17.77;;;;;;;;;;5148937;27;20761;-78
2023/10/30 13:02:23;;;;;;;18.57;17.57;;;;;;;;;;5148859;27;20506;-77
2023/10/30 13:04:50;;;;;;;18.30;17.40;;;;;;;;;;5148235;27;20452;-77
2023/10/30 13:07:17;;;;;;;18.23;17.23;;;;;;;;;;5148773;27;20477;-78
2023/10/30 13:09:45;;;;;;;18.17;17.27;;;;;;;;;;5148640;27;20449;-78
2023/10/30 13:12:12;;;;;;;18.80;17.90;;;;;;;;;;5148701;27;20481;-77
2023/10/30 13:14:40;;;;;;;19.23;18.03;;;;;;;;;;5148211;27;20428;-78
2023/10/30 13:17:08;;;;;;;19.03;17.70;;;;;;;;;;5148565;27;20466;-77
2023/10/30 13:19:36;;;;;;;22.40;18.20;;;;;;;;;;5148692;27;20447;-77
2023/10/30 13:22:03;;;;;;;18.73;17.57;;;;;;;;;;5148703;27;20530;-76
2023/10/30 13:24:30;;;;;;;18.83;17.80;;;;;;;;;;5148148;27;20454;-77
2023/10/30 13:26:57;;;;;;;18.40;17.40;;;;;;;;;;5148366;27;20441;-77
2023/10/30 13:29:27;;;;;;;20.93;19.53;;;;;;;;;;5148481;27;20530;-76
2023/10/30 13:31:54;;;;;;;19.10;18.07;;;;;;;;;;5148379;27;20451;-77
2023/10/30 13:34:23;;;;;;;19.17;18.17;;;;;;;;;;5148830;27;20444;-74
2023/10/30 13:36:50;;;;;;;21.80;19.77;;;;;;;;;;5148495;27;20469;-79
2023/10/30 13:39:17;;;;;;;18.73;17.77;;;;;;;;;;5148176;27;20427;-77
2023/10/30 13:41:45;;;;;;;18.53;17.53;;;;;;;;;;5138888;27;20464;-77
2023/10/30 13:44:12;;;;;;;19.03;17.93;;;;;;;;;;5135775;27;20850;-78
2023/10/30 13:46:39;;;;;;;18.53;17.60;;;;;;;;;;5147603;27;20417;-77
2023/10/30 13:49:06;;;;;;;19.13;17.93;;;;;;;;;;5142417;27;20421;-77
2023/10/30 13:51:35;;;;;;;18.50;17.40;;;;;;;;;;5138213;27;20420;-77
2023/10/30 13:54:02;;;;;;;18.83;17.73;;;;;;;;;;5132506;27;20827;-77
2023/10/30 13:56:29;;;;;;;18.27;17.27;;;;;;;;;;5133973;27;20451;-76
2023/10/30 13:58:56;;;;;;;18.63;17.63;;;;;;;;;;5133826;27;20424;-78
2023/10/30 14:01:23;;;;;;;18.30;17.30;;;;;;;;;;5133964;27;20453;-77
2023/10/30 14:03:50;;;;;;;18.90;17.90;;;;;;;;;;5133481;27;20446;-77
2023/10/30 14:06:17;;;;;;;18.20;17.10;;;;;;;;;;5134086;27;20470;-77
2023/10/30 14:08:46;;;;;;;18.10;17.20;;;;;;;;;;5133968;27;20909;-77
2023/10/30 14:11:13;;;;;;;18.30;17.40;;;;;;;;;;5133383;27;20492;-78
2023/10/30 14:13:40;;;;;;;18.80;17.80;;;;;;;;;;5133535;27;20443;-77
2023/10/30 14:16:07;;;;;;;18.57;17.57;;;;;;;;;;5132828;27;20939;-77
2023/10/30 14:18:34;;;;;;;18.30;17.30;;;;;;;;;;5133545;27;20474;-76
2023/10/30 14:21:02;;;;;;;18.63;17.60;;;;;;;;;;5133600;27;20570;-77